Time;durP1;ratioP1;P1;durP2;ratioP2;P2;SDS_P1;SDS_P2;PMS_P1;PMS_P2;Temp;Humidity;BMP_temperature;BMP_pressure;BME280_temperature;BME280_humidity;BME280_pressure;Samples;Min_cycle;Max_cycle;Signal;HPM_P1;HPM_P2
2023/01/30 00:00:56;;;;;;;;;;;;;;;-4.06;100.00;96815.69;4990516;28;19914;-86
2023/01/30 00:03:22;;;;;;;;;;;;;;;-4.07;100.00;96813.16;4963759;28;19988;-86
2023/01/30 00:05:48;;;;;;;;;;;;;;;-4.12;100.00;96807.34;4969438;28;19920;-86
2023/01/30 00:08:14;;;;;;;;;;;;;;;-4.12;100.00;96802.22;4957585;28;19925;-86
2023/01/30 00:10:39;;;;;;;;;;;;;;;-4.09;100.00;96790.09;4966803;28;19937;-86
2023/01/30 00:13:05;;;;;;;;;;;;;;;-4.08;100.00;96786.63;4967007;28;20321;-86
2023/01/30 00:15:30;;;;;;;;;;;;;;;-4.11;100.00;96783.34;4983282;28;20899;-86
2023/01/30 00:17:57;;;;;;;;;;;;;;;-4.08;100.00;96785.81;4948207;28;19969;-86
2023/01/30 00:20:22;;;;;;;;;;;;;;;-4.05;100.00;96771.09;4988739;28;19968;-86
2023/01/30 00:22:48;;;;;;;;;;;;;;;-4.01;100.00;96765.84;4966937;28;19969;-87
2023/01/30 00:25:13;;;;;;;;;;;;;;;-3.95;100.00;96766.47;4984306;28;19918;-87
2023/01/30 00:27:39;;;;;;;;;;;;;;;-4.03;100.00;96761.59;4991482;28;19913;-87
2023/01/30 00:30:06;;;;;;;;;;;;;;;-4.10;100.00;96767.03;4981088;28;19917;-87
2023/01/30 00:32:32;;;;;;;;;;;;;;;-4.01;100.00;96765.84;4989060;28;20098;-87
2023/01/30 00:34:57;;;;;;;;;;;;;;;-3.98;100.00;96755.47;4978376;28;19967;-87
2023/01/30 00:37:28;;;;;;;;;;;;;;;-4.03;100.00;96746.19;4990622;28;19917;-86
2023/01/30 00:39:56;;;;;;;;;;;;;;;-4.05;100.00;96740.28;4971509;28;19917;-86
2023/01/30 00:47:56;;;;;;;;;;;;;;;-4.13;100.00;96738.88;4968934;28;20248;-86
2023/01/30 00:50:22;;;;;;;;;;;;;;;-4.24;100.00;96747.00;4970848;28;19921;-87
2023/01/30 00:52:47;;;;;;;;;;;;;;;-4.21;100.00;96746.88;4967914;28;19918;-87
2023/01/30 00:55:14;;;;;;;;;;;;;;;-4.23;100.00;96746.09;4983320;28;20167;-87
2023/01/30 00:57:40;;;;;;;;;;;;;;;-4.27;100.00;96749.66;4950441;28;19917;-87
2023/01/30 01:00:07;;;;;;;;;;;;;;;-4.32;100.00;96756.72;4983189;28;19917;-86
2023/01/30 01:02:33;;;;;;;;;;;;;;;-4.31;100.00;96748.94;4970219;28;20429;-87
2023/01/30 01:04:59;;;;;;;;;;;;;;;-4.25;100.00;96762.47;4984124;28;19918;-85
2023/01/30 01:07:26;;;;;;;;;;;;;;;-4.27;100.00;96771.03;4969297;28;20008;-86
2023/01/30 01:09:51;;;;;;;;;;;;;;;-4.22;100.00;96764.94;4958742;28;20083;-87
2023/01/30 01:12:25;;;;;;;;;;;;;;;-4.25;100.00;96768.44;4988831;28;19962;-87
2023/01/30 01:14:51;;;;;;;;;;;;;;;-4.28;100.00;96774.50;4961236;28;19921;-87
2023/01/30 01:17:20;;;;;;;;;;;;;;;-4.25;100.00;96783.00;4949645;29;19914;-87
2023/01/30 01:19:45;;;;;;;;;;;;;;;-4.19;100.00;96788.75;4990365;28;19993;-87
2023/01/30 01:22:11;;;;;;;;;;;;;;;-4.21;100.00;96803.38;4986100;28;20004;-87
2023/01/30 01:24:38;;;;;;;;;;;;;;;-4.12;100.00;96803.06;4948288;28;19918;-87
2023/01/30 01:27:03;;;;;;;;;;;;;;;-4.16;100.00;96810.91;4986063;28;20053;-87
2023/01/30 01:29:30;;;;;;;;;;;;;;;-4.15;100.00;96818.56;4963504;28;19925;-86
2023/01/30 01:31:56;;;;;;;;;;;;;;;-4.30;100.00;96807.09;4945512;28;20298;-87
2023/01/30 01:34:22;;;;;;;;;;;;;;;-4.30;100.00;96817.38;4979485;28;19921;-86
2023/01/30 01:36:49;;;;;;;;;;;;;;;-4.27;100.00;96801.84;4973406;28;19917;-87
2023/01/30 01:39:15;;;;;;;;;;;;;;;-4.29;100.00;96813.09;4958698;28;19960;-86
2023/01/30 01:41:40;;;;;;;;;;;;;;;-4.23;100.00;96807.72;4968972;28;19910;-86
2023/01/30 01:44:10;;;;;;;;;;;;;;;-4.25;100.00;96808.69;4966420;28;20512;-86
2023/01/30 01:46:40;;;;;;;;;;;;;;;-4.25;100.00;96801.81;4943505;28;19918;-87
2023/01/30 01:49:19;;;;;;;;;;;;;;;-4.22;100.00;96818.84;4953014;28;20000;-87
2023/01/30 01:51:48;;;;;;;;;;;;;;;-4.23;100.00;96817.16;4964542;28;20420;-86
2023/01/30 01:54:18;;;;;;;;;;;;;;;-4.23;100.00;96800.00;4971120;28;20635;-87
2023/01/30 01:56:46;;;;;;;;;;;;;;;-4.25;100.00;96786.41;4970963;28;19910;-86
2023/01/30 01:59:20;;;;;;;;;;;;;;;-4.21;100.00;96793.09;4984896;28;19984;-87
2023/01/30 02:01:47;;;;;;;;;;;;;;;-4.15;100.00;96792.06;4979933;28;19921;-87
2023/01/30 02:04:13;;;;;;;;;;;;;;;-4.07;100.00;96800.31;4978751;28;19918;-86
2023/01/30 02:06:41;;;;;;;;;;;;;;;-4.01;100.00;96800.09;4971005;28;19914;-86
2023/01/30 02:09:08;;;;;;;;;;;;;;;-3.98;100.00;96791.44;4947502;28;19920;-86
2023/01/30 02:11:48;;;;;;;;;;;;;;;-3.99;100.00;96779.47;4985256;28;20436;-87
2023/01/30 02:14:15;;;;;;;;;;;;;;;-3.92;100.00;96780.94;4974509;28;19906;-86
2023/01/30 02:16:42;;;;;;;;;;;;;;;-3.92;100.00;96786.06;4979564;28;19922;-87
2023/01/30 02:19:19;;;;;;;;;;;;;;;-3.81;100.00;96795.03;4977082;28;20223;-87
2023/01/30 02:21:45;;;;;;;;;;;;;;;-3.82;100.00;96795.13;4968016;28;19964;-87
2023/01/30 02:24:23;;;;;;;;;;;;;;;-3.81;100.00;96786.50;4949763;28;19913;-85
2023/01/30 02:27:08;;;;;;;;;;;;;;;-3.81;100.00;96786.50;4976144;28;19930;-86
2023/01/30 02:29:52;;;;;;;;;;;;;;;-3.73;100.00;96792.16;4964690;28;19921;-87
2023/01/30 02:32:28;;;;;;;;;;;;;;;-3.72;100.00;96778.44;4971796;28;19914;-87
2023/01/30 02:35:10;;;;;;;;;;;;;;;-3.68;100.00;96764.56;4964197;28;19922;-87
2023/01/30 02:37:36;;;;;;;;;;;;;;;-3.58;100.00;96760.75;4971362;28;19918;-87
2023/01/30 02:40:10;;;;;;;;;;;;;;;-3.52;100.00;96759.69;4958558;28;19932;-87
2023/01/30 02:42:36;;;;;;;;;;;;;;;-3.50;100.00;96746.75;4964449;28;19928;-87
2023/01/30 02:45:05;;;;;;;;;;;;;;;-3.43;100.00;96736.16;4971247;28;19910;-86
2023/01/30 02:47:52;;;;;;;;;;;;;;;-3.48;100.00;96722.66;4938961;28;19924;-87
2023/01/30 02:50:20;;;;;;;;;;;;;;;-3.50;100.00;96721.88;4944142;28;19918;-86
2023/01/30 02:52:51;;;;;;;;;;;;;;;-3.51;100.00;96729.66;4959834;28;19918;-87
2023/01/30 02:55:21;;;;;;;;;;;;;;;-3.58;100.00;96735.03;4964857;28;20013;-87
2023/01/30 02:57:47;;;;;;;;;;;;;;;-3.54;100.00;96719.50;4972486;28;19994;-87
2023/01/30 03:00:16;;;;;;;;;;;;;;;-3.58;100.00;96699.06;4965271;28;19993;-87
2023/01/30 03:02:45;;;;;;;;;;;;;;;-3.56;100.00;96717.81;4942642;28;19913;-87
2023/01/30 03:05:25;;;;;;;;;;;;;;;-3.60;100.00;96703.41;4968889;28;20393;-87
2023/01/30 03:08:00;;;;;;;;;;;;;;;-3.58;100.00;96714.47;4979401;28;19925;-87
2023/01/30 03:10:38;;;;;;;;;;;;;;;-3.57;100.00;96708.44;4966049;28;19924;-87
2023/01/30 03:13:09;;;;;;;;;;;;;;;-3.61;100.00;96719.72;4967270;28;20341;-87
2023/01/30 03:15:42;;;;;;;;;;;;;;;-3.63;100.00;96713.81;4945985;29;19918;-87
2023/01/30 03:18:08;;;;;;;;;;;;;;;-3.61;100.00;96706.06;4944438;28;19921;-87
2023/01/30 03:20:39;;;;;;;;;;;;;;;-3.55;100.00;96708.38;4985820;28;19914;-87
2023/01/30 03:23:09;;;;;;;;;;;;;;;-3.56;100.00;96709.25;4958168;28;19924;-86
2023/01/30 03:25:36;;;;;;;;;;;;;;;-3.63;100.00;96700.13;4950622;28;19918;-86
2023/01/30 03:28:03;;;;;;;;;;;;;;;-3.60;100.00;96690.56;4963122;28;20366;-87
2023/01/30 03:30:29;;;;;;;;;;;;;;;-3.58;100.00;96683.63;4941889;29;20339;-87
2023/01/30 03:33:12;;;;;;;;;;;;;;;-3.56;100.00;96670.69;4958512;28;20407;-87
2023/01/30 03:35:47;;;;;;;;;;;;;;;-3.50;100.00;96664.47;4974275;28;19941;-86
2023/01/30 03:38:13;;;;;;;;;;;;;;;-3.53;100.00;96626.03;4945471;28;20292;-87
2023/01/30 03:40:39;;;;;;;;;;;;;;;-3.57;100.00;96623.59;4958094;28;19921;-87
2023/01/30 03:43:09;;;;;;;;;;;;;;;-3.60;100.00;96598.00;4959798;28;19918;-87
2023/01/30 03:45:36;;;;;;;;;;;;;;;-3.71;100.00;96573.66;4967251;28;19925;-87
2023/01/30 03:48:09;;;;;;;;;;;;;;;-3.70;100.00;96571.03;4942563;28;19917;-87
2023/01/30 03:50:35;;;;;;;;;;;;;;;-3.77;100.00;96579.91;4975709;28;19902;-87
2023/01/30 03:53:01;;;;;;;;;;;;;;;-3.73;100.00;96611.44;4980848;28;19930;-87
2023/01/30 03:55:27;;;;;;;;;;;;;;;-3.74;100.00;96615.75;4944493;28;19921;-87
2023/01/30 03:57:54;;;;;;;;;;;;;;;-3.69;100.00;96603.56;4940679;28;19910;-87
2023/01/30 04:00:34;;;;;;;;;;;;;;;-3.70;100.00;96619.03;4964402;28;19914;-87
2023/01/30 04:03:01;;;;;;;;;;;;;;;-3.71;100.00;96643.91;4956997;28;20016;-87
2023/01/30 04:05:26;;;;;;;;;;;;;;;-3.61;100.00;96632.34;4956814;28;19964;-87
2023/01/30 04:07:58;;;;;;;;;;;;;;;-3.56;100.00;96625.25;4955001;28;20492;-87
2023/01/30 04:10:23;;;;;;;;;;;;;;;-3.51;100.00;96625.09;4938317;28;19926;-87
2023/01/30 04:12:50;;;;;;;;;;;;;;;-3.48;100.00;96612.09;4972153;28;19929;-87
2023/01/30 04:15:17;;;;;;;;;;;;;;;-3.46;100.00;96619.75;4940237;28;19977;-87
2023/01/30 04:18:07;;;;;;;;;;;;;;;-3.42;100.00;96623.84;4982613;28;20384;-87
2023/01/30 04:20:37;;;;;;;;;;;;;;;-3.40;100.00;96610.03;4974024;28;19918;-87
2023/01/30 04:23:03;;;;;;;;;;;;;;;-3.34;100.00;96601.22;4939359;28;19996;-87
2023/01/30 04:25:29;;;;;;;;;;;;;;;-3.29;100.00;96626.75;4957521;28;19946;-87
2023/01/30 04:27:54;;;;;;;;;;;;;;;-3.28;100.00;96616.41;4971490;28;19953;-87
2023/01/30 04:30:34;;;;;;;;;;;;;;;-3.23;100.00;96622.16;4940550;28;20333;-87
2023/01/30 04:33:19;;;;;;;;;;;;;;;-3.21;100.00;96622.13;4958381;28;19918;-87
2023/01/30 04:35:52;;;;;;;;;;;;;;;-3.19;100.00;96621.13;4942894;28;19918;-87
2023/01/30 04:38:18;;;;;;;;;;;;;;;-3.17;100.00;96621.09;4940341;28;19914;-87
2023/01/30 04:40:47;;;;;;;;;;;;;;;-3.16;100.00;96622.75;4939717;28;19940;-87
2023/01/30 04:43:12;;;;;;;;;;;;;;;-3.15;100.00;96612.41;4947090;28;19968;-86
2023/01/30 04:46:00;;;;;;;;;;;;;;;-3.08;100.00;96600.94;4936278;28;19918;-87
2023/01/30 04:48:26;;;;;;;;;;;;;;;-3.09;100.00;96594.09;4937006;29;19914;-87
2023/01/30 04:50:53;;;;;;;;;;;;;;;-3.05;100.00;96599.13;4941162;28;19919;-87
2023/01/30 04:53:22;;;;;;;;;;;;;;;-2.99;100.00;96612.56;4965727;28;19965;-87
2023/01/30 04:55:48;;;;;;;;;;;;;;;-2.97;100.00;96607.34;4984920;28;19967;-87
2023/01/30 04:58:21;;;;;;;;;;;;;;;-2.96;100.00;96603.88;4948817;28;20305;-87
2023/01/30 05:00:50;;;;;;;;;;;;;;;-2.92;100.00;96590.81;4979006;28;20370;-87
2023/01/30 05:03:18;;;;;;;;;;;;;;;-2.94;100.00;96602.06;4943526;28;19913;-87
2023/01/30 05:05:47;;;;;;;;;;;;;;;-2.89;100.00;96598.38;4967064;28;19925;-87
2023/01/30 05:08:13;;;;;;;;;;;;;;;-2.91;100.00;96592.47;4952106;28;20302;-87
2023/01/30 05:10:42;;;;;;;;;;;;;;;-2.90;100.00;96588.16;4956242;28;20024;-87
2023/01/30 05:13:07;;;;;;;;;;;;;;;-2.87;100.00;96588.03;4972585;28;20013;-87
2023/01/30 05:15:33;;;;;;;;;;;;;;;-2.90;100.00;96590.75;4969558;28;20001;-87
2023/01/30 05:18:00;;;;;;;;;;;;;;;-2.87;100.00;96599.16;4978870;28;19910;-87
2023/01/30 05:20:25;;;;;;;;;;;;;;;-2.88;100.00;96599.25;4981371;28;20298;-87
2023/01/30 05:22:51;;;;;;;;;;;;;;;-2.82;100.00;96588.66;4962198;28;19914;-88
2023/01/30 05:28:49;;;;;;;;;;;;;;;-2.87;100.00;96577.75;4991083;28;20289;-88
2023/01/30 05:31:14;;;;;;;;;;;;;;;-2.90;100.00;96572.72;4961514;28;20298;-88
2023/01/30 05:33:40;;;;;;;;;;;;;;;-2.88;100.00;96570.94;4944428;28;19926;-88
2023/01/30 05:36:06;;;;;;;;;;;;;;;-2.91;100.00;96556.44;4942145;28;19918;-88
2023/01/30 05:38:33;;;;;;;;;;;;;;;-2.88;100.00;96568.34;4948178;28;19920;-88
2023/01/30 05:40:59;;;;;;;;;;;;;;;-2.89;100.00;96566.66;4961589;28;19918;-88
2023/01/30 05:43:25;;;;;;;;;;;;;;;-2.92;100.00;96559.06;4965207;28;19941;-89
2023/01/30 05:45:52;;;;;;;;;;;;;;;-2.94;100.00;96566.06;4980286;28;20374;-96
2023/01/30 05:48:17;;;;;;;;;;;;;;;-2.91;100.00;96563.34;4999420;28;20342;-96
2023/01/30 05:54:11;;;;;;;;;;;;;;;-2.91;100.00;96586.50;4999871;28;19941;-96
2023/01/30 06:00:05;;;;;;;;;;;;;;;-3.01;100.00;96577.53;4999791;28;19920;-96
2023/01/30 06:06:06;;;;;;;;;;;;;;;-3.01;100.00;96564.66;4998434;28;19936;-96
2023/01/30 06:08:32;;;;;;;;;;;;;;;-3.00;100.00;96567.16;4983301;28;19992;-96
2023/01/30 06:14:26;;;;;;;;;;;;;;;-2.99;100.00;96555.13;5000431;28;19924;-96
2023/01/30 06:20:20;;;;;;;;;;;;;;;-2.99;100.00;96544.81;5001864;28;19920;-96
2023/01/30 06:22:50;;;;;;;;;;;;;;;-2.85;100.00;96557.91;4999119;28;19968;-91
2023/01/30 06:25:15;;;;;;;;;;;;;;;-2.98;100.00;96552.50;4988126;28;19921;-95
2023/01/30 06:27:42;;;;;;;;;;;;;;;-2.94;100.00;96558.34;4978268;28;19910;-96
2023/01/30 06:33:35;;;;;;;;;;;;;;;-2.86;100.00;96553.66;4980004;28;19925;-95
2023/01/30 06:39:29;;;;;;;;;;;;;;;-2.79;100.00;96559.38;4995750;28;19920;-96
2023/01/30 06:45:23;;;;;;;;;;;;;;;-2.78;100.00;96554.16;4998722;28;19920;-95
2023/01/30 06:47:50;;;;;;;;;;;;;;;-2.65;100.00;96563.00;4996154;28;20040;-95
2023/01/30 06:50:17;;;;;;;;;;;;;;;-2.62;100.00;96565.44;4961549;28;19924;-94
2023/01/30 06:52:43;;;;;;;;;;;;;;;-2.54;100.00;96566.81;4969068;28;19945;-95
2023/01/30 07:04:00;;;;;;;;;;;;;;;-1.90;100.00;96556.84;5697202;23;19968;-93
2023/01/30 07:06:26;;;;;;;;;;;;;;;-2.09;100.00;96550.91;4996864;28;19926;-94
2023/01/30 07:08:52;;;;;;;;;;;;;;;-2.14;100.00;96548.56;4998659;28;19913;-93
2023/01/30 07:11:22;;;;;;;;;;;;;;;-1.82;100.00;96537.56;4999340;28;19960;-93
2023/01/30 07:13:48;;;;;;;;;;;;;;;-1.72;100.00;96539.63;4998949;28;19957;-94
2023/01/30 07:19:42;;;;;;;;;;;;;;;-1.44;100.00;96544.22;5022137;28;19920;-94
2023/01/30 07:25:36;;;;;;;;;;;;;;;-1.43;100.00;96551.06;5024897;28;19924;-95
2023/01/30 07:31:30;;;;;;;;;;;;;;;-1.31;100.00;96553.91;5019597;28;19935;-96
2023/01/30 07:33:56;;;;;;;;;;;;;;;-0.87;100.00;96543.88;5002628;28;19921;-96
2023/01/30 07:39:49;;;;;;;;;;;;;;;-1.29;100.00;96532.28;5020475;28;20316;-95
2023/01/30 07:42:15;;;;;;;;;;;;;;;-1.12;100.00;96553.81;5019580;28;19914;-96
2023/01/30 07:44:40;;;;;;;;;;;;;;;-0.87;100.00;96538.69;5019229;28;20292;-96
2023/01/30 07:47:06;;;;;;;;;;;;;;;-1.07;100.00;96533.75;5019781;28;20373;-95
2023/01/30 07:49:57;;;;;;;;;;;;;;;-1.02;100.00;96542.06;5001596;28;19913;-96
2023/01/30 07:52:22;;;;;;;;;;;;;;;-0.93;100.00;96539.03;5021684;28;19914;-95
2023/01/30 07:54:48;;;;;;;;;;;;;;;-1.07;100.00;96541.50;5022606;28;19917;-95
2023/01/30 08:00:42;;;;;;;;;;;;;;;-0.90;100.00;96538.03;4978769;28;19920;-95
2023/01/30 08:03:42;;;;;;;;;;;;;;;-1.06;100.00;96531.09;4961951;28;19914;-95
2023/01/30 08:06:16;;;;;;;;;;;;;;;-1.03;100.00;96537.84;4993472;28;20028;-93
2023/01/30 08:08:59;;;;;;;;;;;;;;;-1.24;100.00;96530.31;4997691;28;19913;-93
2023/01/30 08:11:36;;;;;;;;;;;;;;;-1.25;100.00;96535.53;4986042;28;19913;-92
2023/01/30 08:14:02;;;;;;;;;;;;;;;-1.30;100.00;96535.78;5007175;28;19928;-93
2023/01/30 08:16:27;;;;;;;;;;;;;;;-1.11;100.00;96511.59;4993819;28;19913;-93
2023/01/30 08:19:03;;;;;;;;;;;;;;;-1.22;100.00;96494.91;5010283;28;19913;-92
2023/01/30 08:21:28;;;;;;;;;;;;;;;-1.17;100.00;96506.75;4999838;28;20680;-88
2023/01/30 08:23:54;;;;;;;;;;;;;;;-1.17;100.00;96535.13;4997538;28;19914;-87
2023/01/30 08:26:30;;;;;;;;;;;;;;;-1.11;100.00;96525.31;4993612;28;19913;-87
2023/01/30 08:28:56;;;;;;;;;;;;;;;-1.15;100.00;96518.66;4990831;28;20005;-87
2023/01/30 08:31:21;;;;;;;;;;;;;;;-1.17;100.00;96510.19;5004735;28;20005;-87
2023/01/30 08:33:47;;;;;;;;;;;;;;;-1.27;100.00;96501.25;4998943;28;19928;-87
2023/01/30 08:36:14;;;;;;;;;;;;;;;-1.37;100.00;96485.41;5000235;28;20391;-87
2023/01/30 08:38:43;;;;;;;;;;;;;;;-1.42;100.00;96485.63;5007918;28;20016;-87
2023/01/30 08:41:08;;;;;;;;;;;;;;;-1.23;100.00;96480.34;4998807;28;19941;-94
2023/01/30 08:43:34;;;;;;;;;;;;;;;-0.69;100.00;96477.47;5000830;28;19917;-94
2023/01/30 08:46:00;;;;;;;;;;;;;;;-0.18;100.00;96485.81;4985120;28;19964;-94
2023/01/30 08:51:53;;;;;;;;;;;;;;;0.09;100.00;96478.22;4992974;28;19928;-86
2023/01/30 08:54:23;;;;;;;;;;;;;;;-0.12;100.00;96472.53;4975507;28;19918;-88
2023/01/30 08:56:48;;;;;;;;;;;;;;;0.05;100.00;96463.78;5002221;28;19921;-87
2023/01/30 08:59:14;;;;;;;;;;;;;;;0.11;100.00;96476.38;4984567;28;20013;-94
2023/01/30 09:02:05;;;;;;;;;;;;;;;0.76;100.00;96463.00;5001457;28;20008;-96
2023/01/30 09:04:31;;;;;;;;;;;;;;;0.13;100.00;96448.66;5003081;28;19920;-88
2023/01/30 09:06:56;;;;;;;;;;;;;;;0.07;100.00;96436.13;5009501;28;20625;-95
2023/01/30 09:09:22;;;;;;;;;;;;;;;-0.11;100.00;96430.25;5001556;28;19913;-95
2023/01/30 09:15:16;;;;;;;;;;;;;;;-0.20;100.00;96445.44;5002663;28;19968;-94
2023/01/30 09:21:11;;;;;;;;;;;;;;;-0.39;100.00;96458.59;5001334;28;19937;-95
2023/01/30 09:23:37;;;;;;;;;;;;;;;-0.71;100.00;96469.78;5001090;28;19926;-96
2023/01/30 09:26:03;;;;;;;;;;;;;;;-0.75;100.00;96460.56;5000862;28;19914;-95
2023/01/30 09:28:28;;;;;;;;;;;;;;;-0.95;100.00;96469.38;5001290;28;19910;-95
2023/01/30 09:30:57;;;;;;;;;;;;;;;-0.98;100.00;96479.88;5001156;28;20426;-94
2023/01/30 09:33:23;;;;;;;;;;;;;;;-0.95;100.00;96477.13;5001993;28;19921;-96
2023/01/30 09:35:49;;;;;;;;;;;;;;;-1.05;100.00;96464.81;5001246;28;19917;-95
2023/01/30 09:38:15;;;;;;;;;;;;;;;-1.11;100.00;96478.03;5000564;28;19914;-95
2023/01/30 09:41:01;;;;;;;;;;;;;;;-1.03;100.00;96476.72;5000281;28;19914;-95
2023/01/30 09:47:07;;;;;;;;;;;;;;;-0.86;100.00;96467.25;5001993;28;19979;-95
2023/01/30 09:49:36;;;;;;;;;;;;;;;-0.96;100.00;96457.41;4969272;28;19914;-94
2023/01/30 09:52:27;;;;;;;;;;;;;;;-0.90;100.00;96445.91;4968341;28;20431;-94
2023/01/30 09:58:41;;;;;;;;;;;;;;;-0.55;100.00;96440.53;5002044;28;19924;-94
2023/01/30 10:01:12;;;;;;;;;;;;;;;-0.49;100.00;96446.19;5000364;28;19917;-95
2023/01/30 10:03:46;;;;;;;;;;;;;;;-0.51;100.00;96437.69;4999825;28;19967;-88
2023/01/30 10:06:13;;;;;;;;;;;;;;;-0.50;100.00;96444.53;5000354;28;19914;-88
2023/01/30 10:12:25;;;;;;;;;;;;;;;-0.37;100.00;96429.19;5005445;28;19933;-88
2023/01/30 10:14:54;;;;;;;;;;;;;;;-0.42;100.00;96423.44;4995798;28;19921;-88
2023/01/30 10:17:46;;;;;;;;;;;;;;;-0.37;100.00;96424.00;4982308;28;19938;-87
2023/01/30 10:20:21;;;;;;;;;;;;;;;-0.38;100.00;96422.31;4967807;28;19914;-88
2023/01/30 10:23:05;;;;;;;;;;;;;;;-0.37;100.00;96425.75;4991991;28;19921;-88
2023/01/30 10:25:31;;;;;;;;;;;;;;;-0.35;100.00;96444.59;4975191;28;19925;-88
2023/01/30 10:28:00;;;;;;;;;;;;;;;-0.38;100.00;96457.66;5004609;28;19921;-94
2023/01/30 10:30:52;;;;;;;;;;;;;;;-0.35;100.00;96447.16;5003606;28;19930;-95
2023/01/30 10:33:21;;;;;;;;;;;;;;;-0.43;100.00;96449.38;5001920;28;19922;-95
2023/01/30 10:35:54;;;;;;;;;;;;;;;-0.46;100.00;96452.94;4984961;28;19918;-95
2023/01/30 10:38:42;;;;;;;;;;;;;;;-0.47;100.00;96456.44;4995630;28;19920;-95
2023/01/30 10:47:58;;;;;;;;;;;;;;;-0.49;100.00;96430.69;5001291;28;19937;-95
2023/01/30 10:50:35;;;;;;;;;;;;;;;-0.49;100.00;96433.28;4995991;28;19914;-95
2023/01/30 10:53:10;;;;;;;;;;;;;;;-0.38;100.00;96432.66;5002881;28;19918;-93
2023/01/30 10:55:44;;;;;;;;;;;;;;;-0.36;100.00;96436.00;4998411;28;19914;-93
2023/01/30 10:58:30;;;;;;;;;;;;;;;-0.35;100.00;96432.50;4975065;28;19918;-93
2023/01/30 11:01:00;;;;;;;;;;;;;;;-0.38;100.00;96424.91;4997476;28;19982;-89
2023/01/30 11:03:46;;;;;;;;;;;;;;;-0.31;100.00;96433.97;4991550;28;20325;-93
2023/01/30 11:06:17;;;;;;;;;;;;;;;-0.16;100.00;96441.78;4994580;28;20317;-92
2023/01/30 11:08:58;;;;;;;;;;;;;;;-0.22;100.00;96427.47;4996555;28;19921;-92
2023/01/30 11:11:27;;;;;;;;;;;;;;;-0.26;100.00;96429.38;4978312;28;19917;-91
2023/01/30 11:14:06;;;;;;;;;;;;;;;-0.25;100.00;96435.38;4973661;28;19921;-92
2023/01/30 11:16:35;;;;;;;;;;;;;;;-0.24;100.00;96429.28;4977411;28;19917;-93
2023/01/30 11:19:04;;;;;;;;;;;;;;;-0.28;100.00;96428.63;4997017;28;19921;-92
2023/01/30 11:21:31;;;;;;;;;;;;;;;-0.25;100.00;96427.63;4978839;28;19921;-92
2023/01/30 11:24:02;;;;;;;;;;;;;;;-0.13;100.00;96424.34;4985579;28;19921;-91
2023/01/30 11:26:31;;;;;;;;;;;;;;;-0.22;100.00;96418.88;4985769;28;19977;-87
2023/01/30 11:28:59;;;;;;;;;;;;;;;-0.22;100.00;96416.28;4990436;28;19918;-87
2023/01/30 11:31:28;;;;;;;;;;;;;;;-0.14;100.00;96414.91;4996272;28;19964;-87
2023/01/30 11:33:58;;;;;;;;;;;;;;;-0.19;100.00;96421.28;4999760;28;19928;-87
2023/01/30 11:36:34;;;;;;;;;;;;;;;-0.18;100.00;96422.94;5000208;28;19937;-88
2023/01/30 11:39:17;;;;;;;;;;;;;;;-0.13;100.00;96423.53;4961874;28;20391;-86
2023/01/30 11:41:56;;;;;;;;;;;;;;;-0.25;100.00;96419.88;4997680;28;19913;-87
2023/01/30 11:44:26;;;;;;;;;;;;;;;0.16;100.00;96417.44;5005022;28;19913;-89
2023/01/30 11:46:51;;;;;;;;;;;;;;;0.13;100.00;96407.28;4983839;28;19913;-93
2023/01/30 11:49:20;;;;;;;;;;;;;;;0.07;100.00;96418.00;5009329;28;19918;-89
2023/01/30 11:51:52;;;;;;;;;;;;;;;-0.13;100.00;96408.00;4996668;28;19928;-87
2023/01/30 11:54:19;;;;;;;;;;;;;;;-0.21;100.00;96403.25;4982014;28;20009;-88
2023/01/30 11:56:55;;;;;;;;;;;;;;;-0.16;100.00;96398.69;4997118;28;19918;-88
2023/01/30 11:59:26;;;;;;;;;;;;;;;-0.09;100.00;96375.88;4963244;28;19968;-84
2023/01/30 12:02:00;;;;;;;;;;;;;;;-0.09;100.00;96389.63;4998860;28;19922;-85
2023/01/30 12:04:27;;;;;;;;;;;;;;;-0.01;100.00;96389.19;4976506;28;20266;-84
2023/01/30 12:07:03;;;;;;;;;;;;;;;-0.02;100.00;96372.84;4979246;28;19914;-85
2023/01/30 12:09:34;;;;;;;;;;;;;;;-0.06;100.00;96366.19;4992773;28;19929;-85
2023/01/30 12:12:00;;;;;;;;;;;;;;;-0.08;100.00;96362.84;4990228;28;20017;-85
2023/01/30 12:14:25;;;;;;;;;;;;;;;-0.09;100.00;96370.72;4978999;28;20020;-85
2023/01/30 12:16:51;;;;;;;;;;;;;;;-0.08;100.00;96369.78;4993019;28;19914;-85
2023/01/30 12:19:23;;;;;;;;;;;;;;;-0.11;100.00;96357.88;4992094;28;19959;-85
2023/01/30 12:21:55;;;;;;;;;;;;;;;-0.13;100.00;96364.91;4980725;28;19938;-84
2023/01/30 12:24:23;;;;;;;;;;;;;;;-0.03;100.00;96367.78;5000155;28;20231;-84
2023/01/30 12:26:51;;;;;;;;;;;;;;;-0.06;100.00;96370.53;4993191;28;19921;-85
2023/01/30 12:29:23;;;;;;;;;;;;;;;-0.11;100.00;96375.97;4981859;28;20004;-85
2023/01/30 12:31:54;;;;;;;;;;;;;;;-0.16;100.00;96380.59;4966522;28;20406;-84
2023/01/30 12:34:22;;;;;;;;;;;;;;;0.11;100.00;96391.03;4997578;28;19993;-89
2023/01/30 12:36:54;;;;;;;;;;;;;;;-0.11;100.00;96394.06;4976800;28;19920;-84
2023/01/30 12:39:19;;;;;;;;;;;;;;;-0.15;100.00;96402.91;4991824;28;19917;-85
2023/01/30 12:42:05;;;;;;;;;;;;;;;-0.08;100.00;96400.81;4970210;28;19940;-84
2023/01/30 12:44:31;;;;;;;;;;;;;;;-0.07;100.00;96408.47;4975497;28;19921;-87
2023/01/30 12:47:17;;;;;;;;;;;;;;;-0.16;100.00;96403.84;4997055;28;20461;-84
2023/01/30 12:50:01;;;;;;;;;;;;;;;-0.17;100.00;96403.91;4972357;28;19914;-84
2023/01/30 12:52:39;;;;;;;;;;;;;;;-0.17;100.00;96406.50;4973552;28;20437;-84
2023/01/30 12:55:25;;;;;;;;;;;;;;;-0.13;100.00;96414.00;5000388;28;19917;-84
2023/01/30 12:57:50;;;;;;;;;;;;;;;-0.11;100.00;96409.56;4973540;28;20377;-83
2023/01/30 13:00:16;;;;;;;;;;;;;;;-0.14;100.00;96412.31;4969182;28;19975;-84
2023/01/30 13:03:03;;;;;;;;;;;;;;;-0.10;100.00;96411.25;4998052;28;19976;-84
2023/01/30 13:05:47;;;;;;;;;;;;;;;-0.02;100.00;96415.97;4976651;28;19918;-84
2023/01/30 13:08:22;;;;;;;;;;;;;;;-0.10;100.00;96419.00;4974240;28;19976;-85
2023/01/30 13:10:50;;;;;;;;;;;;;;;-0.08;100.00;96409.38;4966522;28;19952;-89
2023/01/30 13:13:35;;;;;;;;;;;;;;;-0.04;100.00;96415.19;4996295;28;19938;-90
2023/01/30 13:16:00;;;;;;;;;;;;;;;-0.04;100.00;96428.97;4983503;28;19918;-90
2023/01/30 13:18:31;;;;;;;;;;;;;;;-0.06;100.00;96422.25;4995787;28;19979;-85
2023/01/30 13:21:03;;;;;;;;;;;;;;;-0.06;100.00;96422.25;4979829;28;19925;-84
2023/01/30 13:23:35;;;;;;;;;;;;;;;-0.07;100.00;96430.88;4976841;28;20012;-90
2023/01/30 13:26:04;;;;;;;;;;;;;;;0.02;100.00;96435.53;4972634;28;19914;-90
2023/01/30 13:28:37;;;;;;;;;;;;;;;0.01;100.00;96438.22;4999541;28;19917;-91
2023/01/30 13:31:09;;;;;;;;;;;;;;;-0.02;100.00;96454.75;4991022;28;19922;-91
2023/01/30 13:33:36;;;;;;;;;;;;;;;0.02;100.00;96453.63;4995156;28;19918;-91
2023/01/30 13:36:20;;;;;;;;;;;;;;;0.06;100.00;96472.38;4996018;28;20381;-85
2023/01/30 13:39:02;;;;;;;;;;;;;;;0.08;100.00;96470.56;4967289;28;19921;-85
2023/01/30 13:41:34;;;;;;;;;;;;;;;0.09;100.00;96467.88;4953827;28;19914;-85
2023/01/30 13:44:02;;;;;;;;;;;;;;;0.09;100.00;96473.03;4969473;28;19925;-85
2023/01/30 13:46:29;;;;;;;;;;;;;;;0.08;100.00;96470.56;4970593;28;20287;-85
2023/01/30 13:49:12;;;;;;;;;;;;;;;0.15;100.00;96482.19;4976701;28;19918;-90
2023/01/30 13:51:57;;;;;;;;;;;;;;;0.08;100.00;96481.72;5005138;28;19964;-90
2023/01/30 13:54:26;;;;;;;;;;;;;;;0.10;100.00;96472.13;4973889;28;19976;-90
2023/01/30 13:57:04;;;;;;;;;;;;;;;0.12;100.00;96477.19;4964335;28;19921;-90
2023/01/30 13:59:31;;;;;;;;;;;;;;;0.12;100.00;96472.03;4997084;28;19914;-89
2023/01/30 14:02:03;;;;;;;;;;;;;;;0.09;100.00;96487.72;4985292;28;20296;-89
2023/01/30 14:04:37;;;;;;;;;;;;;;;0.09;100.00;96482.56;4977345;28;19933;-90
2023/01/30 14:07:10;;;;;;;;;;;;;;;0.09;100.00;96492.91;4995634;28;19913;-90
2023/01/30 14:22:27;;;;;;;14.50;8.53;;;;;;;0.04;100.00;96510.44;6223647;22;2125968;-90
2023/01/30 14:25:21;;;;;;;8.27;4.13;;;;;;;0.11;100.00;96510.00;6267154;22;20069;-92
2023/01/30 14:27:52;;;;;;;;;;;;;;;0.19;100.00;96502.59;6286149;22;20438;-90
2023/01/30 14:31:07;;;;;;;18.60;6.23;;;;;;;0.39;100.00;96498.88;6287914;22;19990;-91
2023/01/30 14:33:46;;;;;;;8.87;3.70;;;;;;;0.30;100.00;96512.31;6287653;22;20414;-91
2023/01/30 14:36:14;;;;;;;16.47;7.90;;;;;;;0.28;100.00;96490.09;6286427;22;20432;-91